createdAt,value
2022-11-29T00:01:50.392Z,2.95
2022-11-29T00:04:18.854Z,2.94
2022-11-29T00:06:47.234Z,2.96
2022-11-29T00:09:15.718Z,2.85
2022-11-29T00:12:02.692Z,2.74
2022-11-29T00:14:31.530Z,2.62
2022-11-29T00:17:03.080Z,2.59
2022-11-29T00:19:32.843Z,2.55
2022-11-29T00:22:01.774Z,2.48
2022-11-29T00:24:31.956Z,2.22
2022-11-29T00:27:03.118Z,2.20
2022-11-29T00:29:31.847Z,2.27
2022-11-29T00:32:00.401Z,2.29
2022-11-29T00:34:28.844Z,2.18
2022-11-29T00:36:57.463Z,2.13
2022-11-29T00:39:26.188Z,2.29
2022-11-29T00:41:54.815Z,2.31
2022-11-29T00:44:24.721Z,2.31
2022-11-29T00:46:53.150Z,2.29
2022-11-29T00:49:21.761Z,2.27
2022-11-29T00:51:50.564Z,2.25
2022-11-29T00:54:19.025Z,2.24
2022-11-29T00:56:47.521Z,2.23
2022-11-29T00:59:15.987Z,2.27
2022-11-29T01:01:46.554Z,2.14
2022-11-29T01:04:15.260Z,2.30
2022-11-29T01:06:43.652Z,2.22
2022-11-29T01:09:12.281Z,2.26
2022-11-29T01:11:41.076Z,2.32
2022-11-29T01:14:09.506Z,2.27
2022-11-29T01:16:37.964Z,2.30
2022-11-29T01:19:08.235Z,2.31
2022-11-29T01:21:36.965Z,2.30
2022-11-29T01:24:05.680Z,2.32
2022-11-29T01:26:34.576Z,2.33
2022-11-29T01:29:03.034Z,2.38
2022-11-29T01:31:36.107Z,2.42
2022-11-29T01:34:06.621Z,2.51
2022-11-29T01:36:36.858Z,2.62
2022-11-29T01:39:07.358Z,2.68
2022-11-29T01:41:37.436Z,2.72
2022-11-29T01:44:08.550Z,2.79
2022-11-29T01:46:38.610Z,2.84
2022-11-29T01:49:13.001Z,2.81
2022-11-29T01:51:47.311Z,2.86
2022-11-29T01:54:16.337Z,2.87
2022-11-29T01:56:47.504Z,2.93
2022-11-29T01:59:19.456Z,2.89
2022-11-29T02:01:47.970Z,2.88
2022-11-29T02:04:18.718Z,2.89
2022-11-29T02:06:48.708Z,2.80
2022-11-29T02:09:20.995Z,2.91
2022-11-29T02:12:14.026Z,2.93
2022-11-29T02:15:05.647Z,2.81
2022-11-29T02:17:45.130Z,2.80
2022-11-29T02:20:48.071Z,2.73
2022-11-29T02:23:42.172Z,2.71
2022-11-29T02:26:23.000Z,2.66
2022-11-29T02:29:20.173Z,2.60
2022-11-29T02:32:35.857Z,2.60
2022-11-29T02:35:17.212Z,2.52
2022-11-29T02:38:15.030Z,2.54
2022-11-29T02:40:58.056Z,2.51
2022-11-29T02:43:49.638Z,2.51
2022-11-29T02:46:32.025Z,2.50
2022-11-29T02:49:09.552Z,2.47
2022-11-29T02:51:45.039Z,2.45
2022-11-29T02:54:18.398Z,2.47
2022-11-29T02:56:52.783Z,2.45
2022-11-29T02:59:43.046Z,2.32
2022-11-29T03:02:21.987Z,2.54
2022-11-29T03:04:55.326Z,2.56
2022-11-29T03:07:34.740Z,2.58
2022-11-29T03:10:10.671Z,2.61
2022-11-29T03:12:42.441Z,2.63
2022-11-29T03:15:23.001Z,2.53
2022-11-29T03:18:03.370Z,2.66
2022-11-29T03:20:42.736Z,2.55
2022-11-29T03:23:20.624Z,2.72
2022-11-29T03:25:54.869Z,2.73
2022-11-29T03:28:26.497Z,2.64
2022-11-29T03:31:00.038Z,2.78
2022-11-29T03:33:37.342Z,2.74
2022-11-29T03:36:13.124Z,2.84
2022-11-29T03:38:44.330Z,2.77
2022-11-29T03:41:22.200Z,2.85
2022-11-29T03:43:58.961Z,2.82
2022-11-29T03:46:34.651Z,2.89
2022-11-29T03:49:11.809Z,2.93
2022-11-29T03:51:50.734Z,2.94
2022-11-29T03:54:26.968Z,2.95
2022-11-29T03:56:56.541Z,2.96
2022-11-29T03:59:41.596Z,2.97
2022-11-29T04:02:41.201Z,2.97
2022-11-29T04:05:29.404Z,2.95
2022-11-29T04:08:12.306Z,2.95
2022-11-29T04:11:07.147Z,2.96
2022-11-29T04:14:20.649Z,2.98
2022-11-29T04:17:36.428Z,2.97
2022-11-29T04:20:48.186Z,2.99
2022-11-29T04:23:39.136Z,2.98
2022-11-29T04:27:00.158Z,2.99
2022-11-29T04:30:25.187Z,2.98
2022-11-29T04:33:27.785Z,3.02
2022-11-29T04:36:25.335Z,3.04
2022-11-29T04:39:31.977Z,3.04
2022-11-29T04:42:30.586Z,3.03
2022-11-29T04:45:26.236Z,3.06
2022-11-29T04:48:12.636Z,3.09
2022-11-29T04:50:56.881Z,3.06
2022-11-29T04:53:38.905Z,3.07
2022-11-29T04:56:15.608Z,3.08
2022-11-29T04:58:56.416Z,3.10
2022-11-29T05:01:32.881Z,3.08
2022-11-29T05:04:09.945Z,3.09
2022-11-29T05:06:43.895Z,3.09
2022-11-29T05:09:21.002Z,3.12
2022-11-29T05:12:01.319Z,3.10
2022-11-29T05:14:43.398Z,3.09
2022-11-29T05:17:31.860Z,3.08
2022-11-29T05:20:14.606Z,3.10
2022-11-29T05:22:54.202Z,3.12
2022-11-29T05:25:37.341Z,3.10
2022-11-29T05:28:12.035Z,3.11
2022-11-29T05:31:12.964Z,3.13
2022-11-29T05:34:12.885Z,3.10
2022-11-29T05:36:48.074Z,3.08
2022-11-29T05:39:37.598Z,3.09
2022-11-29T05:42:51.997Z,3.10
2022-11-29T05:45:27.065Z,3.09
2022-11-29T05:48:02.866Z,3.08
2022-11-29T05:50:38.880Z,3.08
2022-11-29T05:53:19.231Z,3.09
2022-11-29T05:55:57.017Z,3.10
2022-11-29T05:58:34.050Z,3.13
2022-11-29T06:01:12.184Z,3.14
2022-11-29T06:03:46.464Z,3.14
2022-11-29T06:06:24.437Z,3.14
2022-11-29T06:08:59.825Z,3.15
2022-11-29T06:11:34.408Z,3.14
2022-11-29T06:14:07.028Z,3.16
2022-11-29T06:16:56.376Z,3.19
2022-11-29T06:19:57.426Z,3.12
2022-11-29T06:22:47.759Z,3.18
2022-11-29T06:25:30.824Z,3.22
2022-11-29T06:28:19.819Z,3.22
2022-11-29T06:31:00.828Z,3.24
2022-11-29T06:33:39.152Z,3.25
2022-11-29T06:36:17.994Z,3.27
2022-11-29T06:38:48.270Z,3.28
2022-11-29T06:41:22.056Z,3.30
2022-11-29T06:43:51.065Z,3.25
2022-11-29T06:46:34.654Z,3.32
2022-11-29T06:49:09.394Z,3.33
2022-11-29T06:51:49.929Z,3.35
2022-11-29T06:54:38.764Z,3.34
2022-11-29T06:57:18.106Z,3.36
2022-11-29T06:59:58.581Z,3.36
2022-11-29T07:02:43.849Z,3.38
2022-11-29T07:05:21.582Z,3.40
2022-11-29T07:07:50.612Z,3.39
2022-11-29T07:10:21.827Z,3.37
2022-11-29T07:12:51.850Z,3.38
2022-11-29T07:15:23.626Z,3.38
2022-11-29T07:18:12.874Z,3.36
2022-11-29T07:20:49.455Z,3.37
2022-11-29T07:23:26.953Z,3.40
2022-11-29T07:26:09.940Z,3.41
2022-11-29T07:28:50.738Z,3.42
2022-11-29T07:31:27.599Z,3.40
2022-11-29T07:34:06.150Z,3.44
2022-11-29T07:36:45.878Z,3.29
2022-11-29T07:39:26.435Z,3.43
2022-11-29T07:42:03.761Z,3.47
2022-11-29T07:44:37.621Z,3.51
2022-11-29T07:47:06.141Z,3.52
2022-11-29T07:49:34.547Z,3.43
2022-11-29T07:52:03.186Z,3.48
2022-11-29T07:54:31.938Z,3.56
2022-11-29T07:57:01.858Z,3.54
2022-11-29T07:59:30.266Z,3.60
2022-11-29T08:01:59.091Z,3.62
2022-11-29T08:04:27.725Z,3.63
2022-11-29T08:06:59.007Z,3.66
2022-11-29T08:09:28.023Z,3.68
2022-11-29T08:11:56.329Z,3.68
2022-11-29T08:14:26.355Z,3.73
2022-11-29T08:16:54.693Z,3.75
2022-11-29T08:19:23.401Z,3.75
2022-11-29T08:21:52.433Z,3.74
2022-11-29T08:24:20.907Z,3.75
2022-11-29T08:26:49.290Z,3.80
2022-11-29T08:29:18.115Z,3.83
2022-11-29T08:31:47.958Z,3.68
2022-11-29T08:34:16.332Z,3.72
2022-11-29T08:36:44.787Z,3.78
2022-11-29T08:39:13.384Z,3.88
2022-11-29T08:41:41.750Z,3.92
2022-11-29T08:44:10.978Z,3.93
2022-11-29T08:46:53.140Z,3.96
2022-11-29T08:49:22.922Z,3.97
2022-11-29T08:51:53.291Z,3.98
2022-11-29T08:54:20.593Z,4.03
2022-11-29T08:57:23.532Z,4.00
2022-11-29T08:59:37.482Z,4.04
2022-11-29T09:02:05.973Z,4.03
2022-11-29T09:04:35.819Z,4.07
2022-11-29T09:07:04.140Z,4.11
2022-11-29T09:09:33.100Z,4.14
2022-11-29T09:12:01.853Z,4.14
2022-11-29T09:14:31.011Z,4.15
2022-11-29T09:16:59.555Z,4.17
2022-11-29T09:19:28.017Z,4.19
2022-11-29T09:21:57.846Z,4.23
2022-11-29T09:24:26.419Z,4.25
2022-11-29T09:26:55.233Z,4.28
2022-11-29T09:29:23.955Z,4.29
2022-11-29T09:31:52.511Z,4.33
2022-11-29T09:34:21.085Z,4.36
2022-11-29T09:36:49.772Z,4.35
2022-11-29T09:39:19.701Z,4.40
2022-11-29T09:42:11.269Z,4.44
2022-11-29T09:44:53.274Z,4.49
2022-11-29T09:47:33.559Z,4.49
2022-11-29T09:50:23.133Z,4.54
2022-11-29T09:53:01.387Z,4.59
2022-11-29T09:55:51.500Z,4.62
2022-11-29T09:58:24.090Z,4.65
2022-11-29T10:00:56.670Z,4.68
2022-11-29T10:03:30.888Z,4.71
2022-11-29T10:06:04.435Z,4.76
2022-11-29T10:08:37.851Z,4.77
2022-11-29T10:11:21.632Z,4.82
2022-11-29T10:13:54.466Z,4.86
2022-11-29T10:16:29.909Z,4.90
2022-11-29T10:19:05.904Z,4.92
2022-11-29T10:21:37.963Z,4.94
2022-11-29T10:24:13.770Z,4.99
2022-11-29T10:26:44.062Z,5.00
2022-11-29T10:29:15.778Z,5.03
2022-11-29T10:31:49.654Z,5.03
2022-11-29T10:34:20.122Z,5.04
2022-11-29T10:36:51.266Z,5.10
2022-11-29T10:39:24.770Z,5.13
2022-11-29T10:41:57.988Z,5.18
2022-11-29T10:44:26.892Z,5.17
2022-11-29T10:46:56.974Z,5.25
2022-11-29T10:49:29.544Z,5.29
2022-11-29T10:51:57.940Z,5.27
2022-11-29T10:54:36.458Z,5.35
2022-11-29T10:57:15.687Z,5.40
2022-11-29T11:00:00.548Z,5.42
2022-11-29T11:02:29.850Z,5.45
2022-11-29T11:04:59.447Z,5.40
2022-11-29T11:07:33.437Z,5.53
2022-11-29T11:10:02.871Z,5.57
2022-11-29T11:12:37.087Z,5.60
2022-11-29T11:15:26.568Z,5.60
2022-11-29T11:17:59.794Z,5.66
2022-11-29T11:20:30.658Z,5.69
2022-11-29T11:23:01.434Z,5.70
2022-11-29T11:25:32.229Z,5.72
2022-11-29T11:28:15.689Z,5.77
2022-11-29T11:30:53.091Z,5.81
2022-11-29T11:33:25.502Z,5.86
2022-11-29T11:36:09.749Z,5.86
2022-11-29T11:38:40.732Z,5.89
2022-11-29T11:41:21.870Z,5.93
2022-11-29T11:43:58.681Z,5.94
2022-11-29T11:46:49.000Z,5.97
2022-11-29T11:49:27.402Z,5.92
2022-11-29T11:51:55.844Z,6.01
2022-11-29T11:54:24.506Z,6.03
2022-11-29T11:56:53.835Z,6.06
2022-11-29T11:59:27.031Z,6.08
2022-11-29T12:01:55.491Z,6.10
2022-11-29T12:04:26.539Z,6.11
2022-11-29T12:06:59.693Z,6.16
2022-11-29T12:09:42.097Z,6.15
2022-11-29T12:12:16.437Z,6.17
2022-11-29T12:14:54.976Z,6.17
2022-11-29T12:17:32.627Z,6.19
2022-11-29T12:20:12.809Z,6.22
2022-11-29T12:22:48.512Z,6.25
2022-11-29T12:25:20.867Z,6.24
2022-11-29T12:27:50.659Z,6.24
2022-11-29T12:30:21.560Z,6.28
2022-11-29T12:33:04.745Z,6.30
2022-11-29T12:35:46.839Z,6.30
2022-11-29T12:38:29.800Z,6.35
2022-11-29T12:41:07.601Z,6.36
2022-11-29T12:43:47.387Z,6.35
2022-11-29T12:46:24.547Z,6.42
2022-11-29T12:49:01.127Z,6.40
2022-11-29T12:51:36.510Z,6.48
2022-11-29T12:54:25.015Z,6.50
2022-11-29T12:57:02.493Z,6.54
2022-11-29T12:59:46.964Z,6.52
2022-11-29T13:02:27.229Z,6.58
2022-11-29T13:05:02.919Z,6.56
2022-11-29T13:07:43.732Z,6.58
2022-11-29T13:10:30.251Z,6.63
2022-11-29T13:13:06.049Z,6.64
2022-11-29T13:15:42.991Z,6.65
2022-11-29T13:18:22.767Z,6.66
2022-11-29T13:20:57.963Z,6.62
2022-11-29T13:23:45.823Z,6.67
2022-11-29T13:26:24.128Z,6.63
2022-11-29T13:28:53.738Z,6.55
2022-11-29T13:31:23.952Z,6.64
2022-11-29T13:34:00.325Z,6.64
2022-11-29T13:36:40.064Z,6.59
2022-11-29T13:39:31.318Z,6.65
2022-11-29T13:42:07.712Z,6.62
2022-11-29T13:44:46.320Z,6.62
2022-11-29T13:47:17.021Z,6.58
2022-11-29T13:49:56.242Z,6.67
2022-11-29T13:52:48.766Z,6.67
2022-11-29T13:55:28.822Z,6.65
2022-11-29T13:58:19.025Z,6.66
2022-11-29T14:00:52.446Z,6.57
2022-11-29T14:03:33.130Z,6.65
2022-11-29T14:06:10.640Z,6.59
2022-11-29T14:09:17.135Z,6.64
2022-11-29T14:11:34.226Z,6.62
2022-11-29T14:14:06.353Z,6.57
2022-11-29T14:16:39.438Z,6.54
2022-11-29T14:19:33.394Z,6.60
2022-11-29T14:22:21.584Z,6.58
2022-11-29T14:25:16.615Z,6.60
2022-11-29T14:28:01.343Z,6.59
2022-11-29T14:31:02.098Z,6.55
2022-11-29T14:34:00.441Z,6.60
2022-11-29T14:36:45.701Z,6.62
2022-11-29T14:39:29.681Z,6.66
2022-11-29T14:42:06.623Z,6.69
2022-11-29T14:44:44.564Z,6.69
2022-11-29T14:47:21.891Z,6.68
2022-11-29T14:49:50.535Z,6.67
2022-11-29T14:52:23.837Z,6.57
2022-11-29T14:54:57.783Z,6.58
2022-11-29T14:58:15.306Z,6.63
2022-11-29T15:01:09.681Z,6.66
2022-11-29T15:03:45.033Z,6.70
2022-11-29T15:06:19.549Z,6.71
2022-11-29T15:08:57.357Z,6.65
2022-11-29T15:11:37.057Z,6.71
2022-11-29T15:14:08.379Z,6.75
2022-11-29T15:17:06.909Z,6.73
2022-11-29T15:20:25.981Z,6.76
2022-11-29T15:22:58.640Z,6.76
2022-11-29T15:25:31.983Z,6.77
2022-11-29T15:28:04.091Z,6.79
2022-11-29T15:30:35.299Z,6.67
2022-11-29T15:33:06.006Z,6.75
2022-11-29T15:35:35.746Z,6.68
2022-11-29T15:38:04.589Z,6.65
2022-11-29T15:40:35.748Z,6.60
2022-11-29T15:43:21.756Z,6.57
2022-11-29T15:45:51.288Z,6.50
2022-11-29T15:48:22.607Z,6.58
2022-11-29T15:51:00.637Z,6.57
2022-11-29T15:53:34.458Z,6.51
2022-11-29T15:56:07.733Z,6.59
2022-11-29T15:58:38.393Z,6.57
2022-11-29T16:01:07.530Z,6.54
2022-11-29T16:03:39.469Z,6.49
2022-11-29T16:06:11.135Z,6.42
2022-11-29T16:08:43.883Z,6.40
2022-11-29T16:11:17.929Z,6.34
2022-11-29T16:14:05.448Z,6.34
2022-11-29T16:16:35.739Z,6.26
2022-11-29T16:19:17.816Z,6.16
2022-11-29T16:21:46.725Z,6.15
2022-11-29T16:24:22.036Z,6.12
2022-11-29T16:26:52.165Z,6.11
2022-11-29T16:29:24.840Z,6.04
2022-11-29T16:31:53.909Z,5.97
2022-11-29T16:34:28.041Z,6.03
2022-11-29T16:37:04.079Z,6.04
2022-11-29T16:39:32.894Z,6.01
2022-11-29T16:42:15.960Z,6.00
2022-11-29T16:45:29.682Z,5.94
2022-11-29T16:48:00.346Z,5.94
2022-11-29T16:50:30.596Z,5.86
2022-11-29T16:53:35.208Z,5.88
2022-11-29T16:56:04.343Z,5.82
2022-11-29T16:58:32.984Z,5.81
2022-11-29T17:01:17.405Z,5.84
2022-11-29T17:03:46.048Z,5.83
2022-11-29T17:06:16.685Z,5.79
2022-11-29T17:08:45.071Z,5.79
2022-11-29T17:11:13.581Z,5.74
2022-11-29T17:13:42.181Z,5.71
2022-11-29T17:16:14.991Z,5.72
2022-11-29T17:18:45.083Z,5.75
2022-11-29T17:21:19.316Z,5.70
2022-11-29T17:23:48.112Z,5.67
2022-11-29T17:26:16.890Z,5.64
2022-11-29T17:28:47.250Z,5.53
2022-11-29T17:31:18.685Z,5.46
2022-11-29T17:33:47.396Z,5.51
2022-11-29T17:36:17.926Z,5.54
2022-11-29T17:38:46.888Z,5.55
2022-11-29T17:41:19.076Z,5.48
2022-11-29T17:43:48.427Z,5.41
2022-11-29T17:46:20.554Z,5.42
2022-11-29T17:48:49.545Z,5.37
2022-11-29T17:51:49.827Z,5.29
2022-11-29T17:54:09.513Z,5.33
2022-11-29T17:56:38.164Z,5.29
2022-11-29T17:59:06.796Z,5.24
2022-11-29T18:01:37.373Z,5.19
2022-11-29T18:04:08.591Z,5.22
2022-11-29T18:06:38.850Z,5.19
2022-11-29T18:09:09.226Z,5.22
2022-11-29T18:11:47.033Z,5.19
2022-11-29T18:14:18.906Z,5.13
2022-11-29T18:16:48.829Z,5.08
2022-11-29T18:19:19.122Z,5.05
2022-11-29T18:21:47.798Z,5.05
2022-11-29T18:24:16.540Z,4.90
2022-11-29T18:26:44.951Z,4.97
2022-11-29T18:29:13.433Z,4.96
2022-11-29T18:31:43.926Z,4.90
2022-11-29T18:34:15.169Z,4.87
2022-11-29T18:36:45.191Z,4.71
2022-11-29T18:39:15.498Z,4.69
2022-11-29T18:41:46.408Z,4.73
2022-11-29T18:44:16.217Z,4.48
2022-11-29T18:46:46.431Z,4.57
2022-11-29T18:49:17.810Z,4.38
2022-11-29T18:51:47.534Z,4.40
2022-11-29T18:54:16.842Z,4.27
2022-11-29T18:56:46.822Z,4.26
2022-11-29T18:59:17.607Z,4.13
2022-11-29T19:01:48.584Z,4.10
2022-11-29T19:04:20.363Z,4.00
2022-11-29T19:06:49.313Z,3.97
2022-11-29T19:09:21.296Z,3.82
2022-11-29T19:11:50.241Z,3.91
2022-11-29T19:14:20.133Z,3.80
2022-11-29T19:16:50.144Z,3.79
2022-11-29T19:19:21.442Z,3.70
2022-11-29T19:21:50.279Z,3.49
2022-11-29T19:24:20.037Z,3.61
2022-11-29T19:26:50.169Z,3.46
2022-11-29T19:29:19.172Z,3.45
2022-11-29T19:31:47.653Z,3.51
2022-11-29T19:34:16.329Z,3.53
2022-11-29T19:36:46.409Z,3.60
2022-11-29T19:39:18.956Z,3.62
2022-11-29T19:41:48.760Z,3.62
2022-11-29T19:44:17.142Z,3.61
2022-11-29T19:46:48.516Z,3.56
2022-11-29T19:49:17.401Z,3.38
2022-11-29T19:51:47.294Z,3.46
2022-11-29T19:54:15.789Z,3.36
2022-11-29T19:56:44.507Z,3.34
2022-11-29T19:59:14.527Z,3.31
2022-11-29T20:01:43.382Z,3.17
2022-11-29T20:04:13.406Z,3.07
2022-11-29T20:06:42.221Z,3.12
2022-11-29T20:09:13.984Z,3.15
2022-11-29T20:11:42.570Z,3.11
2022-11-29T20:14:14.750Z,3.11
2022-11-29T20:16:43.838Z,2.95
2022-11-29T20:19:14.981Z,2.88
2022-11-29T20:21:45.409Z,2.87
2022-11-29T20:24:16.617Z,2.75
2022-11-29T20:26:46.656Z,2.76
2022-11-29T20:29:16.133Z,2.57
2022-11-29T20:31:49.994Z,2.60
2022-11-29T20:34:21.028Z,2.56
2022-11-29T20:37:16.541Z,2.46
2022-11-29T20:39:51.878Z,2.51
2022-11-29T20:42:48.534Z,2.37
2022-11-29T20:45:18.153Z,2.30
2022-11-29T20:47:54.741Z,2.25
2022-11-29T20:50:25.426Z,2.18
2022-11-29T20:53:07.691Z,2.12
2022-11-29T20:55:46.342Z,2.11
2022-11-29T20:58:16.484Z,2.09
2022-11-29T21:00:45.075Z,2.07
2022-11-29T21:03:15.602Z,2.02
2022-11-29T21:05:44.348Z,1.98
2022-11-29T21:08:13.246Z,1.99
2022-11-29T21:10:43.673Z,1.93
2022-11-29T21:13:14.292Z,1.88
2022-11-29T21:15:43.831Z,1.81
2022-11-29T21:18:22.936Z,1.80
2022-11-29T21:21:02.466Z,1.85
2022-11-29T21:23:43.380Z,1.73
2022-11-29T21:26:18.013Z,1.72
2022-11-29T21:28:56.859Z,1.80
2022-11-29T21:31:25.937Z,1.79
2022-11-29T21:33:58.357Z,1.81
2022-11-29T21:36:26.865Z,1.81
2022-11-29T21:39:03.579Z,1.76
2022-11-29T21:41:35.539Z,1.71
2022-11-29T21:44:07.532Z,1.75
2022-11-29T21:46:37.056Z,1.71
2022-11-29T21:49:06.216Z,1.72
2022-11-29T21:51:34.743Z,1.71
2022-11-29T21:54:03.694Z,1.73
2022-11-29T21:56:32.452Z,1.73
2022-11-29T21:59:02.379Z,1.63
2022-11-29T22:01:30.972Z,1.78
2022-11-29T22:03:59.484Z,1.74
2022-11-29T22:06:29.522Z,1.73
2022-11-29T22:08:58.339Z,1.69
2022-11-29T22:11:34.659Z,1.64
2022-11-29T22:14:16.012Z,1.61
2022-11-29T22:16:46.452Z,1.61
2022-11-29T22:19:16.785Z,1.62
2022-11-29T22:21:47.465Z,1.63
2022-11-29T22:24:17.925Z,1.63
2022-11-29T22:26:47.060Z,1.63
2022-11-29T22:29:17.182Z,1.63
2022-11-29T22:31:47.437Z,1.61
2022-11-29T22:34:16.215Z,1.48
2022-11-29T22:36:44.960Z,1.56
2022-11-29T22:39:13.853Z,1.52
2022-11-29T22:41:43.351Z,1.54
2022-11-29T22:44:11.966Z,1.52
2022-11-29T22:46:43.110Z,1.53
2022-11-29T22:49:11.679Z,1.50
2022-11-29T22:51:40.543Z,1.49
2022-11-29T22:54:10.700Z,1.50
2022-11-29T22:56:41.049Z,1.48
2022-11-29T22:59:09.768Z,1.49
2022-11-29T23:01:39.996Z,1.44
2022-11-29T23:04:11.479Z,1.46
2022-11-29T23:06:42.545Z,1.40
2022-11-29T23:09:15.583Z,1.35
2022-11-29T23:11:44.705Z,1.37
2022-11-29T23:14:13.459Z,1.33
2022-11-29T23:16:42.041Z,1.28
2022-11-29T23:19:12.031Z,1.26
2022-11-29T23:21:41.892Z,1.30
2022-11-29T23:24:10.612Z,1.34
2022-11-29T23:26:41.034Z,1.39
2022-11-29T23:29:12.309Z,1.29
2022-11-29T23:31:41.322Z,1.32
2022-11-29T23:34:14.453Z,1.34
2022-11-29T23:36:44.778Z,1.29
2022-11-29T23:39:16.919Z,1.29
2022-11-29T23:41:45.382Z,1.19
2022-11-29T23:44:14.138Z,1.29
2022-11-29T23:46:42.580Z,1.33
2022-11-29T23:49:12.654Z,1.30
2022-11-29T23:51:41.149Z,1.32
2022-11-29T23:54:09.667Z,1.22
2022-11-29T23:56:38.113Z,1.27
2022-11-29T23:59:06.797Z,1.26
